createdAt,value
2023-05-14T00:01:37.601Z,59.16
2023-05-14T00:04:10.132Z,59.11
2023-05-14T00:06:44.573Z,59.29
2023-05-14T00:09:16.907Z,59.38
2023-05-14T00:11:49.938Z,59.30
2023-05-14T00:14:22.541Z,59.72
2023-05-14T00:16:54.795Z,59.08
2023-05-14T00:19:27.109Z,59.55
2023-05-14T00:21:59.338Z,59.44
2023-05-14T00:24:31.590Z,59.60
2023-05-14T00:27:04.648Z,59.99
2023-05-14T00:29:37.560Z,59.68
2023-05-14T00:32:10.977Z,59.76
2023-05-14T00:34:43.259Z,59.45
2023-05-14T00:37:15.577Z,59.98
2023-05-14T00:39:48.252Z,60.65
2023-05-14T00:42:21.187Z,60.13
2023-05-14T00:44:53.739Z,60.63
2023-05-14T00:47:26.585Z,60.41
2023-05-14T00:49:59.104Z,60.55
2023-05-14T00:52:34.047Z,60.37
2023-05-14T00:55:09.772Z,60.29
2023-05-14T00:57:43.094Z,60.52
2023-05-14T01:00:17.398Z,60.62
2023-05-14T01:02:48.587Z,60.96
2023-05-14T01:05:21.638Z,60.64
2023-05-14T01:08:04.574Z,60.52
2023-05-14T01:10:47.397Z,60.93
2023-05-14T01:13:28.311Z,60.68
2023-05-14T01:16:05.261Z,60.86
2023-05-14T01:18:40.724Z,61.07
2023-05-14T01:21:35.156Z,60.70
2023-05-14T01:24:09.017Z,61.13
2023-05-14T01:26:46.088Z,60.62
2023-05-14T01:29:23.288Z,61.26
2023-05-14T01:31:58.799Z,61.47
2023-05-14T01:34:34.211Z,61.19
2023-05-14T01:37:07.812Z,61.46
2023-05-14T01:39:42.489Z,61.37
2023-05-14T01:42:15.096Z,61.72
2023-05-14T01:44:48.510Z,62.16
2023-05-14T01:47:21.209Z,61.76
2023-05-14T01:49:54.349Z,61.69
2023-05-14T01:52:27.079Z,61.66
2023-05-14T01:55:00.313Z,61.49
2023-05-14T01:57:33.086Z,61.65
2023-05-14T02:00:06.832Z,62.40
2023-05-14T02:02:46.200Z,62.05
2023-05-14T02:05:21.501Z,62.25
2023-05-14T02:07:54.103Z,62.15
2023-05-14T02:10:27.297Z,62.40
2023-05-14T02:12:59.643Z,62.49
2023-05-14T02:15:32.010Z,61.91
2023-05-14T02:18:04.223Z,62.34
2023-05-14T02:20:36.476Z,62.12
2023-05-14T02:23:09.563Z,62.33
2023-05-14T02:25:42.301Z,61.93
2023-05-14T02:28:14.501Z,62.21
2023-05-14T02:30:46.925Z,62.07
2023-05-14T02:33:19.726Z,62.49
2023-05-14T02:35:52.526Z,62.39
2023-05-14T02:38:25.501Z,62.78
2023-05-14T02:40:58.986Z,62.87
2023-05-14T02:43:31.218Z,63.02
2023-05-14T02:46:03.957Z,62.68
2023-05-14T02:48:36.360Z,62.90
2023-05-14T02:51:10.128Z,63.00
2023-05-14T02:53:43.579Z,63.00
2023-05-14T02:56:15.946Z,63.34
2023-05-14T02:58:48.391Z,62.95
2023-05-14T03:01:21.885Z,62.89
2023-05-14T03:04:00.468Z,63.08
2023-05-14T03:06:32.731Z,62.91
2023-05-14T03:09:05.001Z,63.11
2023-05-14T03:11:37.873Z,63.18
2023-05-14T03:14:10.404Z,62.96
2023-05-14T03:16:44.379Z,63.02
2023-05-14T03:19:17.667Z,63.22
2023-05-14T03:21:50.484Z,63.17
2023-05-14T03:24:22.845Z,63.33
2023-05-14T03:26:56.346Z,63.24
2023-05-14T03:29:29.274Z,63.08
2023-05-14T03:32:01.473Z,63.70
2023-05-14T03:34:33.857Z,63.69
2023-05-14T03:37:06.389Z,63.28
2023-05-14T03:39:39.564Z,63.85
2023-05-14T03:42:12.054Z,63.62
2023-05-14T03:44:44.383Z,63.47
2023-05-14T03:47:17.232Z,63.50
2023-05-14T03:49:52.516Z,63.51
2023-05-14T03:52:24.737Z,63.99
2023-05-14T03:54:57.754Z,64.02
2023-05-14T03:57:30.075Z,63.83
2023-05-14T04:00:02.327Z,63.65
2023-05-14T04:02:34.871Z,63.84
2023-05-14T04:05:08.002Z,63.85
2023-05-14T04:07:40.213Z,63.18
2023-05-14T04:10:14.286Z,63.19
2023-05-14T04:12:46.936Z,63.07
2023-05-14T04:15:19.661Z,63.97
2023-05-14T04:17:54.756Z,62.82
2023-05-14T04:20:27.706Z,62.51
2023-05-14T04:23:00.671Z,61.90
2023-05-14T04:25:32.997Z,62.40
2023-05-14T04:28:05.554Z,60.35
2023-05-14T04:30:38.687Z,60.06
2023-05-14T04:33:11.501Z,59.58
2023-05-14T04:35:44.763Z,58.63
2023-05-14T04:38:17.233Z,56.77
2023-05-14T04:40:49.644Z,56.58
2023-05-14T04:43:24.658Z,55.43
2023-05-14T04:45:58.336Z,54.36
2023-05-14T04:48:30.939Z,53.18
2023-05-14T04:51:05.036Z,51.33
2023-05-14T04:53:39.986Z,50.81
2023-05-14T04:56:13.228Z,49.86
2023-05-14T04:58:45.532Z,48.60
2023-05-14T05:01:17.970Z,47.38
2023-05-14T05:03:50.420Z,46.23
2023-05-14T05:06:25.077Z,44.83
2023-05-14T05:09:01.975Z,43.50
2023-05-14T05:11:35.120Z,42.78
2023-05-14T05:14:07.558Z,42.00
2023-05-14T05:16:41.068Z,40.96
2023-05-14T05:19:13.520Z,39.36
2023-05-14T05:21:45.950Z,38.44
2023-05-14T05:24:18.623Z,37.40
2023-05-14T05:26:52.525Z,37.32
2023-05-14T05:29:27.546Z,37.36
2023-05-14T05:32:00.088Z,37.04
2023-05-14T05:34:32.517Z,37.54
2023-05-14T05:37:06.262Z,36.63
2023-05-14T05:39:39.581Z,35.90
2023-05-14T05:42:12.003Z,35.88
2023-05-14T05:44:44.372Z,34.95
2023-05-14T05:47:17.370Z,33.53
2023-05-14T05:49:49.890Z,33.19
2023-05-14T05:52:22.452Z,32.67
2023-05-14T05:54:55.881Z,32.50
2023-05-14T05:57:29.978Z,32.11
2023-05-14T06:00:10.135Z,31.67
2023-05-14T06:02:45.481Z,31.48
2023-05-14T06:05:18.652Z,31.59
2023-05-14T06:07:51.155Z,30.68
2023-05-14T06:10:26.616Z,30.75
2023-05-14T06:13:00.152Z,31.35
2023-05-14T06:15:32.766Z,31.65
2023-05-14T06:18:05.379Z,31.91
2023-05-14T06:20:38.689Z,32.18
2023-05-14T06:23:12.492Z,32.42
2023-05-14T06:25:44.787Z,33.13
2023-05-14T06:28:17.271Z,33.08
2023-05-14T06:30:56.224Z,33.88
2023-05-14T06:33:31.884Z,33.89
2023-05-14T06:36:08.191Z,34.63
2023-05-14T06:38:41.649Z,34.82
2023-05-14T06:41:14.275Z,35.16
2023-05-14T06:43:46.544Z,35.67
2023-05-14T06:46:19.087Z,35.90
2023-05-14T06:48:51.432Z,36.18
2023-05-14T06:51:23.867Z,36.27
2023-05-14T06:54:04.539Z,35.86
2023-05-14T06:56:37.598Z,36.04
2023-05-14T06:59:12.865Z,36.63
2023-05-14T07:01:45.343Z,36.71
2023-05-14T07:04:22.384Z,36.49
2023-05-14T07:06:54.730Z,35.68
2023-05-14T07:09:27.268Z,35.92
2023-05-14T07:11:59.623Z,36.05
2023-05-14T07:14:32.255Z,36.43
2023-05-14T07:17:04.743Z,36.23
2023-05-14T07:19:37.688Z,36.04
2023-05-14T07:22:10.326Z,36.69
2023-05-14T07:24:45.420Z,36.83
2023-05-14T07:27:18.225Z,36.76
2023-05-14T07:29:50.802Z,36.89
2023-05-14T07:32:25.249Z,36.71
2023-05-14T07:34:57.743Z,37.01
2023-05-14T07:37:30.126Z,36.75
2023-05-14T07:40:08.200Z,37.19
2023-05-14T07:42:41.117Z,37.25
2023-05-14T07:45:14.013Z,37.22
2023-05-14T07:47:46.321Z,36.51
2023-05-14T07:50:19.676Z,36.55
2023-05-14T07:52:51.941Z,37.03
2023-05-14T07:55:24.850Z,36.75
2023-05-14T07:57:57.210Z,36.22
2023-05-14T08:00:30.746Z,35.95
2023-05-14T08:03:03.188Z,36.05
2023-05-14T08:05:35.587Z,35.75
2023-05-14T08:08:08.546Z,35.91
2023-05-14T08:10:42.296Z,35.49
2023-05-14T08:13:13.000Z,35.52
2023-05-14T08:15:45.288Z,35.58
2023-05-14T08:18:18.389Z,35.16
2023-05-14T08:20:51.478Z,35.33
2023-05-14T08:23:23.853Z,35.31
2023-05-14T08:25:56.120Z,34.96
2023-05-14T08:28:28.798Z,35.06
2023-05-14T08:31:01.262Z,35.29
2023-05-14T08:33:33.590Z,35.21
2023-05-14T08:36:08.865Z,35.06
2023-05-14T08:38:44.436Z,34.86
2023-05-14T08:41:22.953Z,34.75
2023-05-14T08:44:10.255Z,34.65
2023-05-14T08:46:45.654Z,34.49
2023-05-14T08:49:34.122Z,34.49
2023-05-14T08:52:08.222Z,34.12
2023-05-14T08:54:41.350Z,34.36
2023-05-14T08:57:14.486Z,33.94
2023-05-14T08:59:47.450Z,33.69
2023-05-14T09:02:22.218Z,33.44
2023-05-14T09:04:59.218Z,32.65
2023-05-14T09:07:31.535Z,33.20
2023-05-14T09:10:04.231Z,32.53
2023-05-14T09:12:37.419Z,32.18
2023-05-14T09:15:11.722Z,32.47
2023-05-14T09:17:44.524Z,31.89
2023-05-14T09:20:18.041Z,31.55
2023-05-14T09:22:48.756Z,31.50
2023-05-14T09:25:21.122Z,31.05
2023-05-14T09:27:55.693Z,31.32
2023-05-14T09:30:30.267Z,30.65
2023-05-14T09:33:04.304Z,30.55
2023-05-14T09:35:39.426Z,30.81
2023-05-14T09:38:12.405Z,30.29
2023-05-14T09:40:44.663Z,30.21
2023-05-14T09:43:16.944Z,29.98
2023-05-14T09:45:49.362Z,29.32
2023-05-14T09:48:22.596Z,29.55
2023-05-14T09:50:54.939Z,29.19
2023-05-14T09:53:27.682Z,29.06
2023-05-14T09:56:00.180Z,28.45
2023-05-14T09:58:32.689Z,28.52
2023-05-14T10:01:06.322Z,28.18
2023-05-14T10:03:40.674Z,28.03
2023-05-14T10:06:15.114Z,27.78
2023-05-14T10:08:49.928Z,27.58
2023-05-14T10:11:26.557Z,27.33
2023-05-14T10:14:10.911Z,27.29
2023-05-14T10:16:48.342Z,27.42
2023-05-14T10:19:22.470Z,26.77
2023-05-14T10:22:01.116Z,26.92
2023-05-14T10:24:34.363Z,26.78
2023-05-14T10:27:05.159Z,26.86
2023-05-14T10:29:39.893Z,27.01
2023-05-14T10:32:13.552Z,26.46
2023-05-14T10:34:46.513Z,26.61
2023-05-14T10:37:21.118Z,26.59
2023-05-14T10:39:55.587Z,26.62
2023-05-14T10:42:30.057Z,26.40
2023-05-14T10:45:06.007Z,26.47
2023-05-14T10:47:40.284Z,26.40
2023-05-14T10:50:15.334Z,26.34
2023-05-14T10:52:48.252Z,26.56
2023-05-14T10:55:20.497Z,26.52
2023-05-14T10:57:53.689Z,26.77
2023-05-14T11:00:27.993Z,26.41
2023-05-14T11:03:01.783Z,26.51
2023-05-14T11:05:39.432Z,26.68
2023-05-14T11:08:13.147Z,27.07
2023-05-14T11:10:47.279Z,27.06
2023-05-14T11:13:20.368Z,27.00
2023-05-14T11:15:53.484Z,26.90
2023-05-14T11:18:31.194Z,26.90
2023-05-14T11:21:03.802Z,26.47
2023-05-14T11:23:36.081Z,26.48
2023-05-14T11:26:09.013Z,26.37
2023-05-14T11:28:42.462Z,26.62
2023-05-14T11:31:15.696Z,26.33
2023-05-14T11:33:47.994Z,26.33
2023-05-14T11:36:20.289Z,26.12
2023-05-14T11:38:52.847Z,26.06
2023-05-14T11:41:28.255Z,26.26
2023-05-14T11:44:01.102Z,26.10
2023-05-14T11:46:33.456Z,26.22
2023-05-14T11:49:09.546Z,26.17
2023-05-14T11:51:41.953Z,25.98
2023-05-14T11:54:16.945Z,25.74
2023-05-14T11:56:54.085Z,25.49
2023-05-14T11:59:27.250Z,25.57
2023-05-14T12:01:59.861Z,25.45
2023-05-14T12:04:32.570Z,25.35
2023-05-14T12:07:11.813Z,25.05
2023-05-14T12:09:49.619Z,24.98
2023-05-14T12:12:23.831Z,24.64
2023-05-14T12:14:56.199Z,24.52
2023-05-14T12:17:28.564Z,24.64
2023-05-14T12:20:01.771Z,24.68
2023-05-14T12:22:32.478Z,25.17
2023-05-14T12:25:05.196Z,25.07
2023-05-14T12:27:40.823Z,25.36
2023-05-14T12:32:53.128Z,24.98
2023-05-14T12:35:25.882Z,25.43
2023-05-14T12:37:58.323Z,25.13
2023-05-14T12:40:30.639Z,25.03
2023-05-14T12:43:04.394Z,25.34
2023-05-14T12:45:36.640Z,25.38
2023-05-14T12:48:09.860Z,25.81
2023-05-14T12:50:42.273Z,25.48
2023-05-14T12:53:16.543Z,25.08
2023-05-14T12:55:49.852Z,25.05
2023-05-14T12:58:22.215Z,25.64
2023-05-14T13:00:54.857Z,25.30
2023-05-14T13:03:27.951Z,25.24
2023-05-14T13:06:00.487Z,25.51
2023-05-14T13:08:32.797Z,25.33
2023-05-14T13:11:05.051Z,25.82
2023-05-14T13:13:39.542Z,25.59
2023-05-14T13:16:17.049Z,25.59
2023-05-14T13:18:49.693Z,25.45
2023-05-14T13:21:22.756Z,25.61
2023-05-14T13:23:55.112Z,25.55
2023-05-14T13:26:28.471Z,25.94
2023-05-14T13:29:01.241Z,25.94
2023-05-14T13:31:34.065Z,25.58
2023-05-14T13:34:08.325Z,25.85
2023-05-14T13:36:40.949Z,26.16
2023-05-14T13:39:14.437Z,26.12
2023-05-14T13:41:47.023Z,25.62
2023-05-14T13:44:19.509Z,25.70
2023-05-14T13:46:51.917Z,25.64
2023-05-14T13:49:24.375Z,25.93
2023-05-14T13:51:56.605Z,26.10
2023-05-14T13:54:28.926Z,26.10
2023-05-14T13:57:01.222Z,26.15
2023-05-14T13:59:33.635Z,26.31
2023-05-14T14:02:07.225Z,26.23
2023-05-14T14:04:40.295Z,26.13
2023-05-14T14:07:12.646Z,26.35
2023-05-14T14:09:45.376Z,26.35
2023-05-14T14:12:17.754Z,26.39
2023-05-14T14:14:51.131Z,26.55
2023-05-14T14:17:25.387Z,26.42
2023-05-14T14:19:57.839Z,26.71
2023-05-14T14:22:30.200Z,26.94
2023-05-14T14:25:02.877Z,26.81
2023-05-14T14:27:39.679Z,26.86
2023-05-14T14:30:16.842Z,26.91
2023-05-14T14:32:50.002Z,27.02
2023-05-14T14:35:23.218Z,26.64
2023-05-14T14:37:55.942Z,27.15
2023-05-14T14:40:28.476Z,26.95
2023-05-14T14:43:02.571Z,27.14
2023-05-14T14:45:35.027Z,27.58
2023-05-14T14:48:25.264Z,27.43
2023-05-14T14:50:58.972Z,27.12
2023-05-14T14:53:41.552Z,27.03
2023-05-14T14:56:14.965Z,27.47
2023-05-14T14:58:47.337Z,27.16
2023-05-14T15:01:19.875Z,27.72
2023-05-14T15:03:52.774Z,27.25
2023-05-14T15:06:25.091Z,27.78
2023-05-14T15:08:57.656Z,27.69
2023-05-14T15:11:30.654Z,27.58
2023-05-14T15:14:08.171Z,27.29
2023-05-14T15:16:44.701Z,27.29
2023-05-14T15:19:17.345Z,27.49
2023-05-14T15:21:50.428Z,27.75
2023-05-14T15:24:24.187Z,27.98
2023-05-14T15:26:56.670Z,28.15
2023-05-14T15:29:29.101Z,27.86
2023-05-14T15:32:06.812Z,28.29
2023-05-14T15:34:44.682Z,27.85
2023-05-14T15:37:17.119Z,28.34
2023-05-14T15:39:49.599Z,28.49
2023-05-14T15:42:22.280Z,28.36
2023-05-14T15:44:54.634Z,28.66
2023-05-14T15:47:27.441Z,28.35
2023-05-14T15:50:00.080Z,28.96
2023-05-14T15:52:33.826Z,28.94
2023-05-14T15:55:05.054Z,28.47
2023-05-14T15:57:40.642Z,28.86
2023-05-14T16:00:15.097Z,29.16
2023-05-14T16:02:47.638Z,29.09
2023-05-14T16:05:20.405Z,29.45
2023-05-14T16:07:53.129Z,29.42
2023-05-14T16:10:26.206Z,29.45
2023-05-14T16:12:58.752Z,29.60
2023-05-14T16:15:31.312Z,29.77
2023-05-14T16:18:04.323Z,29.66
2023-05-14T16:20:36.584Z,29.31
2023-05-14T16:23:09.109Z,29.81
2023-05-14T16:25:44.034Z,29.89
2023-05-14T16:28:16.753Z,29.60
2023-05-14T16:30:49.286Z,29.73
2023-05-14T16:33:21.467Z,29.85
2023-05-14T16:35:54.285Z,29.58
2023-05-14T16:38:27.006Z,29.89
2023-05-14T16:40:59.324Z,29.82
2023-05-14T16:43:31.489Z,29.64
2023-05-14T16:46:03.933Z,29.89
2023-05-14T16:48:36.245Z,29.55
2023-05-14T16:51:10.831Z,29.81
2023-05-14T16:53:43.360Z,29.99
2023-05-14T16:56:16.017Z,29.97
2023-05-14T16:58:48.296Z,30.11
2023-05-14T17:01:20.646Z,30.11
2023-05-14T17:03:54.627Z,30.23
2023-05-14T17:06:27.847Z,29.94
2023-05-14T17:09:00.234Z,30.34
2023-05-14T17:11:33.068Z,30.05
2023-05-14T17:14:04.149Z,30.28
2023-05-14T17:16:42.466Z,30.07
2023-05-14T17:19:13.783Z,30.56
2023-05-14T17:21:46.189Z,30.45
2023-05-14T17:24:18.627Z,30.57
2023-05-14T17:26:50.961Z,30.54
2023-05-14T17:29:23.451Z,30.51
2023-05-14T17:31:56.107Z,30.84
2023-05-14T17:34:28.676Z,31.04
2023-05-14T17:37:01.144Z,30.77
2023-05-14T17:39:33.390Z,30.97
2023-05-14T17:42:06.420Z,31.42
2023-05-14T17:44:41.606Z,31.24
2023-05-14T17:47:14.020Z,31.25
2023-05-14T17:49:46.578Z,31.75
2023-05-14T17:52:19.334Z,31.61
2023-05-14T17:54:51.721Z,31.60
2023-05-14T17:57:24.255Z,31.91
2023-05-14T17:59:56.635Z,31.75
2023-05-14T18:02:29.271Z,32.05
2023-05-14T18:05:03.483Z,32.15
2023-05-14T18:07:36.577Z,32.44
2023-05-14T18:10:11.650Z,32.43
2023-05-14T18:12:46.424Z,32.54
2023-05-14T18:15:20.326Z,32.45
2023-05-14T18:21:17.800Z,32.76
2023-05-14T18:23:50.239Z,33.36
2023-05-14T18:26:23.429Z,33.72
2023-05-14T18:28:55.945Z,33.10
2023-05-14T18:31:28.979Z,33.51
2023-05-14T18:34:02.026Z,34.07
2023-05-14T18:36:34.664Z,34.39
2023-05-14T18:39:06.991Z,34.48
2023-05-14T18:41:45.415Z,34.58
2023-05-14T18:44:17.965Z,34.78
2023-05-14T18:46:50.545Z,35.42
2023-05-14T18:49:22.936Z,35.31
2023-05-14T18:51:55.246Z,35.99
2023-05-14T18:54:27.635Z,36.15
2023-05-14T18:57:00.344Z,35.85
2023-05-14T18:59:32.729Z,36.48
2023-05-14T19:02:05.202Z,36.45
2023-05-14T19:04:50.771Z,36.39
2023-05-14T19:07:24.862Z,36.73
2023-05-14T19:10:10.065Z,36.66
2023-05-14T19:12:44.828Z,36.95
2023-05-14T19:15:17.307Z,37.05
2023-05-14T19:17:49.675Z,37.30
2023-05-14T19:20:22.515Z,37.34
2023-05-14T19:22:55.350Z,37.64
2023-05-14T19:25:28.017Z,37.80
2023-05-14T19:28:01.746Z,38.60
2023-05-14T19:30:34.131Z,38.02
2023-05-14T19:33:06.674Z,39.21
2023-05-14T19:35:39.387Z,39.15
2023-05-14T19:38:11.934Z,39.26
2023-05-14T19:40:45.704Z,39.25
2023-05-14T19:43:17.986Z,39.87
2023-05-14T19:45:50.829Z,40.44
2023-05-14T19:48:23.171Z,39.87
2023-05-14T19:50:55.902Z,41.14
2023-05-14T19:53:30.952Z,40.58
2023-05-14T19:56:03.815Z,41.03
2023-05-14T19:58:36.480Z,40.64
2023-05-14T20:01:09.756Z,41.42
2023-05-14T20:03:42.552Z,41.60
2023-05-14T20:06:15.149Z,41.26
2023-05-14T20:08:47.672Z,41.54
2023-05-14T20:11:20.091Z,42.07
2023-05-14T20:13:52.349Z,41.88
2023-05-14T20:16:27.905Z,42.34
2023-05-14T20:19:01.593Z,42.66
2023-05-14T20:21:34.997Z,43.15
2023-05-14T20:24:07.932Z,42.26
2023-05-14T20:26:42.819Z,43.25
2023-05-14T20:29:15.803Z,42.65
2023-05-14T20:31:48.206Z,43.49
2023-05-14T20:34:20.475Z,42.97
2023-05-14T20:36:53.258Z,42.65
2023-05-14T20:39:27.871Z,43.59
2023-05-14T20:42:02.967Z,43.48
2023-05-14T20:44:35.776Z,42.93
2023-05-14T20:47:09.325Z,42.78
2023-05-14T20:49:42.724Z,43.08
2023-05-14T20:52:15.387Z,43.80
2023-05-14T20:54:47.688Z,43.44
2023-05-14T20:57:20.709Z,43.51
2023-05-14T20:59:53.090Z,43.16
2023-05-14T21:02:25.694Z,43.25
2023-05-14T21:05:04.623Z,43.31
2023-05-14T21:07:38.106Z,42.63
2023-05-14T21:10:12.423Z,43.27
2023-05-14T21:12:45.165Z,42.52
2023-05-14T21:15:17.455Z,42.89
2023-05-14T21:17:49.859Z,43.38
2023-05-14T21:20:22.432Z,42.73
2023-05-14T21:22:54.856Z,43.25
2023-05-14T21:25:27.996Z,43.26
2023-05-14T21:28:00.542Z,42.45
2023-05-14T21:30:34.430Z,42.60
2023-05-14T21:33:07.173Z,42.50
2023-05-14T21:35:39.631Z,42.68
2023-05-14T21:38:12.053Z,42.11
2023-05-14T21:40:44.284Z,42.03
2023-05-14T21:43:16.660Z,42.09
2023-05-14T21:45:49.440Z,42.59
2023-05-14T21:48:23.026Z,42.29
2023-05-14T21:50:56.135Z,42.29
2023-05-14T21:53:28.707Z,42.74
2023-05-14T21:56:03.944Z,42.44
2023-05-14T21:58:36.651Z,42.51
2023-05-14T22:01:11.792Z,42.30
2023-05-14T22:03:45.337Z,43.00
2023-05-14T22:06:20.087Z,42.43
2023-05-14T22:08:52.349Z,42.61
2023-05-14T22:11:24.716Z,42.90
2023-05-14T22:13:56.914Z,42.42
2023-05-14T22:16:29.624Z,42.36
2023-05-14T22:19:06.459Z,42.49
2023-05-14T22:21:41.575Z,42.29
2023-05-14T22:24:14.019Z,42.46
2023-05-14T22:26:46.603Z,42.82
2023-05-14T22:29:18.917Z,42.20
2023-05-14T22:31:51.478Z,42.85
2023-05-14T22:34:23.879Z,42.27
2023-05-14T22:36:56.281Z,42.19
2023-05-14T22:39:28.779Z,41.89
2023-05-14T22:42:01.832Z,42.22
2023-05-14T22:44:36.012Z,42.19
2023-05-14T22:47:09.817Z,42.01
2023-05-14T22:49:43.785Z,42.36
2023-05-14T22:52:14.515Z,43.05
2023-05-14T22:54:47.189Z,42.33
2023-05-14T22:57:19.527Z,42.88
2023-05-14T22:59:52.188Z,42.60
2023-05-14T23:02:24.748Z,42.23
2023-05-14T23:04:57.989Z,42.07
2023-05-14T23:07:30.487Z,42.64
2023-05-14T23:10:02.806Z,41.96
2023-05-14T23:12:35.185Z,42.15
2023-05-14T23:15:09.412Z,42.44
2023-05-14T23:17:42.828Z,43.02
2023-05-14T23:20:15.586Z,42.62
2023-05-14T23:22:48.622Z,42.52
2023-05-14T23:25:21.335Z,42.13
2023-05-14T23:27:53.675Z,42.76
2023-05-14T23:30:26.362Z,42.23
2023-05-14T23:32:58.702Z,42.78
2023-05-14T23:35:31.363Z,42.49
2023-05-14T23:38:05.172Z,42.97
2023-05-14T23:40:37.390Z,42.49
2023-05-14T23:43:10.861Z,42.62
2023-05-14T23:45:45.049Z,42.18
2023-05-14T23:48:17.521Z,42.66
2023-05-14T23:50:49.812Z,42.53
2023-05-14T23:53:22.310Z,43.10
2023-05-14T23:55:55.238Z,43.17
2023-05-14T23:58:27.561Z,43.11
